Time;durP1;ratioP1;P1;durP2;ratioP2;P2;SDS_P1;SDS_P2;PMS_P1;PMS_P2;Temp;Humidity;BMP_temperature;BMP_pressure;BME280_temperature;BME280_humidity;BME280_pressure;Samples;Min_cycle;Max_cycle;Signal;HPM_P1;HPM_P2
2021/03/07 00:00:32;;;;;;;8.23;6.00;;;;;;;2.55;37.48;94807.75;4943745;28;20034;-84
2021/03/07 00:03:03;;;;;;;7.78;5.68;;;;;;;2.94;38.24;94890.13;4961872;28;20089;-84
2021/03/07 00:05:35;;;;;;;10.38;6.65;;;;;;;2.82;38.15;94857.13;4956127;28;20051;-84
2021/03/07 00:08:04;;;;;;;11.02;6.97;;;;;;;2.50;38.50;94814.63;4944477;28;20519;-84
2021/03/07 00:10:30;;;;;;;10.95;7.05;;;;;;;2.53;39.04;94817.63;4968667;28;20311;-84
2021/03/07 00:13:28;;;;;;;9.98;6.25;;;;;;;2.58;38.84;94828.22;4876182;28;20176;-84
2021/03/07 00:15:59;;;;;;;12.95;6.75;;;;;;;2.86;38.17;94859.06;4884217;28;20410;-84
2021/03/07 00:18:50;;;;;;;12.38;5.72;;;;;;;2.99;37.74;94882.44;4940834;28;20034;-84
2021/03/07 00:21:35;;;;;;;10.45;5.82;;;;;;;2.72;38.17;94859.41;4896642;28;20043;-84
2021/03/07 00:24:07;;;;;;;10.23;6.13;;;;;;;2.52;38.30;94823.03;4933986;28;20211;-83
2021/03/07 00:26:57;;;;;;;9.75;6.63;;;;;;;2.33;38.28;94805.75;4952035;28;20812;-83
2021/03/07 00:29:45;;;;;;;8.73;6.38;;;;;;;2.77;38.70;94868.19;4896772;28;21000;-83
2021/03/07 00:32:43;;;;;;;9.32;6.07;;;;;;;2.63;38.20;94845.84;4873313;28;20110;-84
2021/03/07 00:35:12;;;;;;;10.80;7.03;;;;;;;2.82;38.88;94878.81;4950774;28;21171;-83
2021/03/07 00:37:38;;;;;;;11.02;7.00;;;;;;;2.48;38.75;94811.44;4973652;28;20549;-84
2021/03/07 00:40:05;;;;;;;10.02;6.65;;;;;;;2.59;38.84;94845.44;4974390;28;20034;-84
2021/03/07 00:42:34;;;;;;;10.85;6.60;;;;;;;2.34;39.28;94821.19;4975687;28;20031;-83
2021/03/07 00:45:21;;;;;;;;;;;;;;;;;;;;;
2021/03/07 00:47:47;;;;;;;7.32;5.95;;;;;;;2.14;39.84;94810.91;4921517;28;20047;-84
2021/03/07 00:50:33;;;;;;;10.00;6.78;;;;;;;2.41;39.44;94874.09;4942072;28;20029;-84
2021/03/07 00:53:04;;;;;;;9.93;6.28;;;;;;;2.10;39.46;94822.72;4945916;28;20030;-84
2021/03/07 00:55:33;;;;;;;9.50;6.05;;;;;;;1.85;39.69;94788.03;4906692;28;20031;-83
2021/03/07 00:58:13;;;;;;;9.30;6.57;;;;;;;1.86;39.84;94801.88;4951168;28;20050;-84
2021/03/07 01:00:41;;;;;;;9.30;6.22;;;;;;;2.05;39.27;94843.44;4915833;28;20074;-84
2021/03/07 01:03:06;;;;;;;10.50;6.22;;;;;;;2.12;39.72;94856.44;4938414;28;20463;-83
2021/03/07 01:06:10;;;;;;;9.98;5.95;;;;;;;1.90;39.98;94829.91;4924853;28;20133;-84
2021/03/07 01:08:50;;;;;;;10.82;6.47;;;;;;;1.46;40.70;94783.03;4913697;28;20510;-84
2021/03/07 01:11:52;;;;;;;12.63;6.88;;;;;;;1.81;40.98;94852.00;4914415;28;20038;-84
2021/03/07 01:15:15;;;;;;;9.25;6.10;;;;;;;1.57;40.78;94800.59;4988128;23;20214;-84
2021/03/07 01:17:46;;;;;;;9.43;6.07;;;;;;;1.22;41.37;94781.97;4910303;28;20042;-84
2021/03/07 01:20:30;;;;;;;12.93;6.10;;;;;;;1.16;41.19;94774.97;4897145;28;20028;-83
2021/03/07 01:23:10;;;;;;;8.75;6.97;;;;;;;1.63;41.53;94854.50;4934128;28;20695;-84
2021/03/07 01:28:29;;;;;;;9.38;6.65;;;;;;;1.27;41.35;94814.16;4910645;28;20158;-84
2021/03/07 01:31:17;;;;;;;10.00;6.80;;;;;;;1.41;41.85;94845.38;4930560;28;20971;-84
2021/03/07 01:33:59;;;;;;;8.63;6.57;;;;;;;1.23;42.47;94818.19;4886053;28;20122;-85
2021/03/07 01:36:32;;;;;;;12.93;8.13;;;;;;;1.27;41.32;94814.16;4846306;28;20060;-85
2021/03/07 01:39:05;;;;;;;11.02;7.60;;;;;;;0.95;41.74;94767.44;4865769;29;21051;-84
2021/03/07 01:45:40;;;;;;;31.52;15.25;;;;;;;0.94;41.81;94761.41;4824586;29;20421;-84
2021/03/07 01:48:58;;;;;;;64.03;23.55;;;;;;;1.37;41.72;94833.78;4803064;29;20045;-84
2021/03/07 01:51:43;;;;;;;41.28;16.77;;;;;;;1.21;42.25;94825.41;4825410;29;20040;-85
2021/03/07 01:54:32;;;;;;;36.95;16.05;;;;;;;0.63;42.70;94743.13;4873076;23;20443;-84
2021/03/07 01:57:14;;;;;;;75.15;29.52;;;;;;;0.87;42.06;94773.66;4858910;28;20101;-85
2021/03/07 02:00:23;;;;;;;41.50;17.65;;;;;;;0.67;42.07;94739.09;4880245;28;20174;-85
2021/03/07 02:03:02;;;;;;;71.38;29.75;;;;;;;1.19;42.26;94817.00;4854420;28;20070;-85
2021/03/07 02:05:48;;;;;;;99.07;39.40;;;;;;;0.74;42.25;94760.66;4893365;28;20061;-85
2021/03/07 02:08:24;;;;;;;71.72;30.00;;;;;;;0.94;42.40;94808.25;4862978;28;20034;-84
2021/03/07 02:14:59;;;;;;;;;;;;;;;;;;;;;
2021/03/07 02:17:40;;;;;;;12.80;7.05;;;;;;;0.52;42.75;94748.94;4942197;28;20054;-84
2021/03/07 02:20:18;;;;;;;11.80;7.80;;;;;;;0.46;42.71;94758.34;4927626;28;20030;-85
2021/03/07 02:23:50;;;;;;;13.80;8.43;;;;;;;0.58;42.49;94751.53;4939858;28;20023;-84
2021/03/07 02:26:48;;;;;;;13.98;9.57;;;;;;;0.59;43.12;94765.31;4868777;28;20050;-84
2021/03/07 02:29:39;;;;;;;22.10;11.77;;;;;;;0.48;43.15;94748.56;4898899;28;20492;-84
2021/03/07 02:32:24;;;;;;;22.65;12.00;;;;;;;0.37;42.81;94736.97;4915449;28;20117;-84
2021/03/07 02:35:03;;;;;;;43.35;25.88;;;;;;;0.80;43.32;94806.69;4958636;28;20073;-84
2021/03/07 02:37:30;;;;;;;31.67;19.08;;;;;;;0.71;43.81;94798.31;4963037;28;20042;-84
2021/03/07 02:40:30;;;;;;;22.17;13.93;;;;;;;0.66;43.79;94798.13;4949190;28;20099;-84
2021/03/07 02:43:01;;;;;;;15.93;9.98;;;;;;;0.34;44.62;94765.19;4933448;28;20280;-84
2021/03/07 02:45:41;;;;;;;15.93;9.93;;;;;;;0.31;44.30;94755.97;4871337;28;20035;-84
2021/03/07 02:48:17;;;;;;;17.77;11.43;;;;;;;0.56;44.26;94791.72;4899068;28;20223;-84
2021/03/07 02:50:55;;;;;;;14.48;7.95;;;;;;;0.04;45.15;94728.41;4939389;28;20069;-84
2021/03/07 02:53:48;;;;;;;11.32;8.15;;;;;;;0.08;44.20;94727.00;4922589;28;20544;-84
2021/03/07 02:56:27;;;;;;;8.43;6.55;;;;;;;0.12;44.41;94724.78;4940408;28;20108;-84
2021/03/07 02:59:07;;;;;;;9.13;6.65;;;;;;;-0.06;44.69;94712.41;4952854;28;20029;-85
2021/03/07 03:01:39;;;;;;;12.57;7.32;;;;;;;0.11;45.00;94744.78;4905066;28;20057;-84
2021/03/07 03:04:19;;;;;;;10.32;7.07;;;;;;;0.04;44.86;94725.81;4935287;28;20520;-84
2021/03/07 03:06:52;;;;;;;12.02;7.53;;;;;;;0.37;45.07;94794.16;4913695;28;20643;-84
2021/03/07 03:09:36;;;;;;;12.23;7.93;;;;;;;-0.09;45.31;94718.00;4919887;28;20085;-84
2021/03/07 03:12:05;;;;;;;12.13;7.88;;;;;;;0.35;45.38;94796.16;4900878;28;20129;-84
2021/03/07 03:14:32;;;;;;;13.02;9.32;;;;;;;0.15;44.35;94758.97;4943384;28;20101;-84
2021/03/07 03:17:09;;;;;;;9.73;6.68;;;;;;;-0.07;44.95;94727.22;4958128;28;20084;-84
2021/03/07 03:19:51;;;;;;;11.88;7.30;;;;;;;-0.01;45.29;94728.22;4911647;28;20101;-84
2021/03/07 03:22:24;;;;;;;10.27;7.43;;;;;;;0.10;45.37;94753.56;4897689;28;20039;-84
2021/03/07 03:24:54;;;;;;;14.48;7.57;;;;;;;-0.08;44.90;94714.41;4908634;28;20179;-84
2021/03/07 03:27:27;;;;;;;11.13;7.45;;;;;;;-0.01;44.66;94744.59;4934073;28;20035;-84
2021/03/07 03:30:02;;;;;;;12.30;7.70;;;;;;;-0.04;44.82;94751.97;4882486;28;20503;-84
2021/03/07 03:32:33;;;;;;;10.40;7.18;;;;;;;-0.34;44.95;94694.41;4888102;28;20057;-84
2021/03/07 03:35:19;;;;;;;14.18;8.60;;;;;;;0.05;44.90;94761.16;4956002;28;20023;-84
2021/03/07 03:37:51;;;;;;;9.48;7.70;;;;;;;-0.06;45.30;94757.38;4943967;28;20046;-84
2021/03/07 03:40:32;;;;;;;10.57;7.40;;;;;;;-0.24;45.20;94710.41;4891585;28;21180;-84
2021/03/07 03:43:07;;;;;;;13.40;7.63;;;;;;;0.03;45.31;94763.19;4890685;28;20448;-84
2021/03/07 03:45:57;;;;;;;14.73;8.93;;;;;;;-0.20;45.30;94736.81;4910300;28;20409;-84
2021/03/07 03:48:41;;;;;;;10.80;8.07;;;;;;;-0.37;45.10;94714.78;4894256;28;20036;-84
2021/03/07 03:51:10;;;;;;;9.88;7.45;;;;;;;-0.10;45.59;94773.59;4924122;28;20115;-84
2021/03/07 03:53:54;;;;;;;11.40;7.93;;;;;;;-0.34;45.74;94724.81;4904496;28;20052;-84
2021/03/07 03:56:25;;;;;;;10.55;8.10;;;;;;;-0.51;45.88;94714.00;4885943;28;20105;-84
2021/03/07 03:59:16;;;;;;;12.68;8.43;;;;;;;-0.12;45.96;94797.16;4933531;28;20199;-84
2021/03/07 04:01:41;;;;;;;10.85;8.32;;;;;;;-0.29;46.02;94753.59;4863802;28;20079;-84
2021/03/07 04:04:22;;;;;;;10.55;6.78;;;;;;;-0.47;46.35;94744.56;4918740;28;20078;-84
2021/03/07 04:06:57;;;;;;;9.80;6.72;;;;;;;-0.14;46.84;94785.34;4900473;28;20043;-84
2021/03/07 04:09:36;;;;;;;12.30;7.20;;;;;;;-0.45;47.13;94732.19;4892352;28;20039;-84
2021/03/07 04:12:04;;;;;;;7.90;6.63;;;;;;;-0.17;47.56;94794.34;4907044;28;20051;-84
2021/03/07 04:14:35;;;;;;;12.23;8.00;;;;;;;-0.21;47.06;94789.75;4880690;29;20199;-84
2021/03/07 04:17:09;;;;;;;8.88;6.18;;;;;;;-0.27;47.03;94788.75;4881785;28;20028;-84
2021/03/07 04:19:35;;;;;;;10.57;6.93;;;;;;;-0.65;47.98;94731.34;4920129;28;20035;-84
2021/03/07 04:22:01;;;;;;;10.65;6.40;;;;;;;-0.58;48.53;94739.13;4891057;28;20047;-84
2021/03/07 04:24:37;;;;;;;12.13;6.25;;;;;;;-0.58;48.62;94752.91;4864634;28;20076;-84
2021/03/07 04:27:03;;;;;;;11.63;6.18;;;;;;;-0.96;49.17;94718.88;4870201;28;20047;-84
2021/03/07 04:29:29;;;;;;;9.43;7.15;;;;;;;-0.65;48.66;94757.31;4919457;28;20039;-84
2021/03/07 04:31:56;;;;;;;11.70;7.55;;;;;;;-0.86;48.27;94713.31;4939436;28;20390;-84
2021/03/07 04:34:21;;;;;;;10.80;7.35;;;;;;;-0.59;47.86;94768.72;4938122;28;20058;-84
2021/03/07 04:36:47;;;;;;;25.52;10.38;;;;;;;-0.94;48.46;94723.88;4915470;28;20035;-84
2021/03/07 04:39:22;;;;;;;9.95;6.88;;;;;;;-0.74;48.37;94745.50;4857287;29;20047;-85
2021/03/07 04:41:48;;;;;;;13.13;8.50;;;;;;;-0.62;48.29;94756.09;4904909;28;20062;-84
2021/03/07 04:44:13;;;;;;;10.70;7.80;;;;;;;-0.75;48.60;94740.50;4916592;28;20199;-83
2021/03/07 04:46:42;;;;;;;7.93;6.90;;;;;;;-0.66;48.25;94742.72;4938995;28;20089;-84
2021/03/07 04:49:11;;;;;;;13.95;7.10;;;;;;;-0.91;48.10;94702.72;4890345;28;20141;-83
2021/03/07 04:51:52;;;;;;;9.25;6.53;;;;;;;-1.07;48.47;94695.28;4886973;29;20497;-84
2021/03/07 04:54:20;;;;;;;9.80;6.55;;;;;;;-0.50;48.85;94791.69;4924173;28;20516;-84
2021/03/07 04:56:48;;;;;;;8.55;6.70;;;;;;;-0.78;49.22;94738.31;4952096;28;20038;-84
2021/03/07 04:59:23;;;;;;;8.93;6.50;;;;;;;-0.94;49.12;94713.50;4931675;28;20034;-84
2021/03/07 05:01:51;;;;;;;6.20;5.57;;;;;;;-0.63;49.37;94752.69;4940704;28;20480;-83
2021/03/07 05:04:19;;;;;;;8.90;6.57;;;;;;;-0.30;49.27;94788.34;4909115;28;20065;-84
2021/03/07 05:06:45;;;;;;;13.48;6.53;;;;;;;-0.45;48.18;94705.41;4931044;28;20583;-84
2021/03/07 05:09:10;;;;;;;9.13;6.45;;;;;;;0.22;46.93;94731.19;4930714;28;20784;-83
2021/03/07 05:11:37;;;;;;;11.52;7.22;;;;;;;0.96;45.81;94780.25;4926441;28;20032;-83
2021/03/07 05:14:06;;;;;;;11.45;6.70;;;;;;;1.33;44.78;94777.88;4914771;28;20738;-83
2021/03/07 05:16:41;;;;;;;11.40;8.13;;;;;;;1.66;43.46;94745.44;4920539;28;20042;-84
2021/03/07 05:19:06;;;;;;;;;;;;;;;2.39;42.59;94773.59;4856385;28;20056;-83
2021/03/07 05:21:38;;;;;;;16.35;7.28;;;;;;;2.31;42.11;94738.13;4936064;28;19930;-84
2021/03/07 05:24:08;;;;;;;8.80;7.13;;;;;;;2.45;42.49;94736.97;4924372;28;20170;-84
2021/03/07 05:26:33;;;;;;;14.30;8.88;;;;;;;3.11;41.02;94785.13;4914582;28;20505;-84
2021/03/07 05:29:05;;;;;;;14.77;8.20;;;;;;;3.02;39.82;94761.91;4947868;28;20026;-84
2021/03/07 05:31:33;;;;;;;12.63;8.25;;;;;;;3.13;39.27;94736.09;4961367;28;20404;-83
2021/03/07 05:34:02;;;;;;;10.07;7.45;;;;;;;2.80;40.02;94763.34;4905255;28;20190;-84
2021/03/07 05:36:56;;;;;;;11.25;7.80;;;;;;;2.51;40.45;94759.63;4907663;28;20497;-83
2021/03/07 05:39:30;;;;;;;15.77;8.63;;;;;;;2.23;40.52;94720.16;4883706;28;20043;-83
2021/03/07 05:42:03;;;;;;;13.85;9.15;;;;;;;2.52;40.30;94769.03;4922146;28;20043;-84
2021/03/07 05:44:29;;;;;;;12.60;8.93;;;;;;;2.15;40.33;94729.03;4936693;28;20619;-83
2021/03/07 05:47:04;;;;;;;13.45;9.48;;;;;;;2.23;41.16;94724.56;4957035;28;20134;-84
2021/03/07 05:49:29;;;;;;;13.27;9.93;;;;;;;2.74;39.98;94768.63;4928039;28;20043;-84
2021/03/07 05:52:05;;;;;;;13.20;10.23;;;;;;;3.21;38.58;94733.16;4936578;28;20037;-84
2021/03/07 05:54:43;;;;;;;;;;;;;;;;;;;;;
2021/03/07 06:00:00;;;;;;;16.45;11.05;;;;;;;5.85;34.40;94735.41;4895224;28;20058;-85
2021/03/07 06:03:31;;;;;;;14.32;10.02;;;;;;;7.14;32.99;94776.28;4884070;28;20111;-85
2021/03/07 06:06:11;;;;;;;17.35;10.30;;;;;;;7.86;32.07;94741.09;4831880;29;20287;-85
2021/03/07 06:09:31;;;;;;;18.60;11.63;;;;;;;8.52;30.98;94719.56;4835746;28;20050;-85
2021/03/07 06:12:19;;;;;;;15.07;11.38;;;;;;;9.06;30.22;94741.25;4902729;28;20092;-85
2021/03/07 06:15:37;;;;;;;;;;;;;;;;;;;;;
2021/03/07 06:21:45;;;;;;;20.52;12.57;;;;;;;9.82;29.02;94773.22;4954526;28;20142;-86
2021/03/07 06:24:53;;;;;;;19.95;12.35;;;;;;;9.28;29.12;94721.84;4926739;28;20065;-85
2021/03/07 06:27:19;;;;;;;14.95;11.52;;;;;;;9.41;28.67;94716.09;4941930;28;20054;-86
2021/03/07 06:30:07;;;;;;;18.50;11.68;;;;;;;10.71;28.00;94769.41;4955227;28;20050;-86
2021/03/07 06:32:46;;;;;;;14.57;11.73;;;;;;;11.37;27.56;94762.16;4886992;28;20533;-86
2021/03/07 06:35:48;;;;;;;22.90;12.95;;;;;;;12.29;25.95;94736.81;4895310;28;20417;-86
2021/03/07 06:42:31;;;;;;;15.75;12.07;;;;;;;13.64;25.41;94764.22;4919323;28;20186;-86
2021/03/07 06:45:31;;;;;;;16.23;12.15;;;;;;;13.95;25.13;94720.28;4822841;29;20045;-86
2021/03/07 06:48:12;;;;;;;14.63;11.57;;;;;;;14.41;23.14;94706.38;4806483;29;20495;-86
2021/03/07 06:51:52;;;;;;;;;;;;;;;;;;;;;
2021/03/07 06:55:12;;;;;;;11.93;9.82;;;;;;;14.38;22.25;94698.94;4906028;23;20075;-86
2021/03/07 06:57:41;;;;;;;20.70;13.25;;;;;;;15.22;21.86;94716.41;4894510;28;20039;-85
2021/03/07 07:00:41;;;;;;;20.38;14.00;;;;;;;15.17;21.74;94753.78;5049956;23;20043;-85
2021/03/07 07:03:32;;;;;;;;;;;;;;;;;;;;;
2021/03/07 07:06:17;;;;;;;17.67;12.18;;;;;;;15.70;20.52;94687.50;4871254;28;20051;-84
2021/03/07 07:09:11;;;;;;;15.48;10.82;;;;;;;16.23;20.63;94748.22;4855386;28;21152;-84
2021/03/07 07:11:51;;;;;;;14.40;11.60;;;;;;;15.83;20.59;94748.00;4878100;28;20053;-84
2021/03/07 07:15:18;;;;;;;13.63;11.38;;;;;;;16.33;20.54;94753.34;4968536;23;20051;-84
2021/03/07 07:17:52;;;;;;;18.10;11.15;;;;;;;17.07;19.88;94689.66;4855036;23;20334;-86
2021/03/07 07:42:24;;;;;;;12.90;10.43;;;;;;;19.77;17.14;94735.41;4924420;28;20675;-87
2021/03/07 07:56:21;;;;;;;11.38;10.15;;;;;;;23.58;14.16;94703.25;4960398;28;21133;-87
2021/03/07 07:58:48;;;;;;;15.10;10.57;;;;;;;24.27;13.82;94655.88;4848013;28;20087;-81
2021/03/07 08:01:17;;;;;;;11.60;9.93;;;;;;;24.11;13.74;94663.19;4947144;28;20498;-81
2021/03/07 08:03:59;;;;;;;16.70;10.35;;;;;;;24.35;13.86;94652.16;4929350;28;20106;-86
2021/03/07 08:07:06;;;;;;;12.00;10.43;;;;;;;23.62;14.15;94674.44;4956391;23;20793;-86
2021/03/07 08:12:56;;;;;;;13.32;9.88;;;;;;;22.77;14.91;94657.97;4928598;28;21941;-85
2021/03/07 08:16:12;;;;;;;13.13;11.15;;;;;;;22.43;15.20;94660.09;4933880;28;20051;-85
2021/03/07 08:19:05;;;;;;;13.05;10.10;;;;;;;24.31;14.91;94681.03;4828634;29;21450;-86
2021/03/07 08:29:02;;;;;;;12.40;10.77;;;;;;;23.56;14.32;94670.41;5079693;23;20207;-85
2021/03/07 08:31:36;;;;;;;14.32;10.93;;;;;;;23.14;14.32;94626.97;4868237;29;20048;-86
2021/03/07 08:34:55;;;;;;;15.68;10.13;;;;;;;23.16;14.24;94667.88;4857084;29;20052;-85
2021/03/07 08:40:41;;;;;;;14.55;10.05;;;;;;;23.47;14.22;94623.16;4768974;29;20053;-87
2021/03/07 08:44:05;;;;;;;12.57;9.68;;;;;;;24.12;14.36;94643.16;4814799;29;20060;-85
2021/03/07 08:46:38;;;;;;;;;;;;;;;23.43;14.29;94643.84;4946772;23;20549;-84
2021/03/07 08:49:21;;;;;;;13.32;10.20;;;;;;;23.11;14.63;94637.69;4925190;28;20175;-84
2021/03/07 08:51:59;;;;;;;14.15;10.85;;;;;;;21.76;15.25;94582.72;4882538;28;20132;-84
2021/03/07 08:54:31;;;;;;;11.25;9.90;;;;;;;20.95;15.99;94577.47;4870585;28;20575;-87
2021/03/07 08:57:27;;;;;;;14.77;11.80;;;;;;;21.01;16.09;94571.53;4926508;28;20035;-87
2021/03/07 09:00:07;;;;;;;14.00;11.73;;;;;;;21.84;16.41;94635.66;4849252;28;20035;-85
2021/03/07 09:03:08;;;;;;;14.60;11.23;;;;;;;20.60;16.42;94561.75;4849203;29;20106;-86
2021/03/07 09:06:05;;;;;;;15.73;10.60;;;;;;;20.93;16.33;94580.50;4916821;29;20040;-87
2021/03/07 09:08:41;;;;;;;13.60;10.57;;;;;;;20.28;16.66;94559.84;4799759;29;20077;-86
2021/03/07 09:11:32;;;;;;;15.82;12.05;;;;;;;20.28;16.87;94571.34;4782377;29;20587;-86
2021/03/07 09:14:21;;;;;;;14.57;11.50;;;;;;;19.72;17.50;94606.84;4825810;29;21112;-87
2021/03/07 09:16:54;;;;;;;16.58;11.48;;;;;;;19.24;18.43;94608.06;4765816;29;20046;-87
2021/03/07 09:19:33;;;;;;;13.52;11.20;;;;;;;18.19;18.43;94551.66;4789145;29;20121;-87
2021/03/07 09:22:37;;;;;;;18.70;13.45;;;;;;;17.77;19.06;94544.47;4973850;23;20064;-88
2021/03/07 09:25:21;;;;;;;16.67;12.32;;;;;;;17.84;19.69;94598.25;4984697;23;20691;-86
2021/03/07 09:28:46;;;;;;;19.90;12.43;;;;;;;17.64;20.07;94597.75;4924650;29;20097;-86
2021/03/07 09:31:40;;;;;;;16.63;12.85;;;;;;;18.74;19.14;94543.66;4898182;28;20178;-86
2021/03/07 09:34:33;;;;;;;16.55;13.02;;;;;;;19.72;18.77;94582.72;4917548;28;20040;-86
2021/03/07 09:37:07;;;;;;;14.13;12.48;;;;;;;20.03;17.96;94516.06;4876798;28;20052;-87
2021/03/07 09:39:52;;;;;;;;;;;;;;;;;;;;;
2021/03/07 09:42:24;;;;;;;18.92;12.15;;;;;;;20.53;16.95;94507.00;4879157;28;19914;-87
2021/03/07 09:45:03;;;;;;;13.75;11.50;;;;;;;20.33;17.28;94507.91;4895587;29;20028;-87
2021/03/07 09:47:38;;;;;;;18.67;13.23;;;;;;;20.14;17.67;94511.81;4919393;29;20863;-87
2021/03/07 09:50:33;;;;;;;;;;;;;;;20.88;17.24;94550.38;4899446;28;20166;-86
2021/03/07 09:53:34;;;;;;;15.25;11.95;;;;;;;20.02;17.95;94492.22;4873150;28;19926;-86
2021/03/07 09:56:18;;;;;;;16.80;12.48;;;;;;;18.71;18.53;94516.75;4871328;28;20668;-87
2021/03/07 09:59:07;;;;;;;17.13;12.48;;;;;;;18.42;18.83;94483.44;4860336;28;20170;-87
2021/03/07 10:05:41;;;;;;;15.80;12.95;;;;;;;17.35;20.00;94520.03;4847784;29;20502;-86
2021/03/07 10:08:34;;;;;;;;;;;;;;;;;;;;;
2021/03/07 10:11:26;;;;;;;25.75;13.75;;;;;;;17.07;21.37;94534.75;4867039;28;20039;-86
2021/03/07 10:14:08;;;;;;;14.30;12.13;;;;;;;17.33;20.61;94524.91;4854926;28;20494;-86
2021/03/07 10:16:54;;;;;;;17.65;14.25;;;;;;;16.46;21.07;94453.72;4919566;28;20043;-87
2021/03/07 10:19:25;;;;;;;;;;;;;;;16.50;21.31;94521.38;4904550;29;20171;-87
2021/03/07 10:22:21;;;;;;;;;;;;;;;;;;;;;
2021/03/07 10:25:28;;;;;;;19.73;13.70;;;;;;;16.00;21.79;94451.47;4871518;29;20584;-86
2021/03/07 10:28:07;;;;;;;21.55;14.75;;;;;;;15.68;22.47;94468.53;4802720;28;20100;-86
2021/03/07 10:30:53;;;;;;;;;;;;;;;;;;;;;
2021/03/07 10:33:53;;;;;;;17.23;13.70;;;;;;;15.80;22.66;94467.97;4872268;28;20043;-86
2021/03/07 10:36:22;;;;;;;19.85;15.25;;;;;;;14.68;23.21;94403.16;4845997;28;20040;-86
2021/03/07 10:39:26;;;;;;;;;;;;;;;;;;;;;
2021/03/07 10:42:24;;;;;;;21.23;15.65;;;;;;;13.50;25.08;94460.63;4808653;29;20045;-86
2021/03/07 10:45:19;;;;;;;19.17;15.45;;;;;;;13.07;25.65;94405.00;4786359;29;20116;-86
2021/03/07 10:48:26;;;;;;;21.08;15.75;;;;;;;13.38;25.57;94471.72;4846726;29;20064;-85
2021/03/07 10:50:57;;;;;;;20.13;15.77;;;;;;;12.19;26.26;94421.56;4791261;29;20048;-86
2021/03/07 10:56:51;;;;;;;20.90;16.08;;;;;;;11.99;27.03;94435.81;4804836;29;20055;-85
2021/03/07 10:59:28;;;;;;;20.40;14.18;;;;;;;11.29;28.04;94402.84;4868872;29;20101;-86
2021/03/07 11:02:10;;;;;;;23.23;17.00;;;;;;;10.91;28.29;94401.00;4846509;28;20086;-86
2021/03/07 11:04:38;;;;;;;24.95;15.50;;;;;;;11.19;28.33;94424.88;4835208;28;20152;-85
2021/03/07 11:07:30;;;;;;;24.17;16.27;;;;;;;10.67;28.80;94370.00;4850907;28;20053;-85
2021/03/07 11:10:22;;;;;;;23.65;16.45;;;;;;;10.59;29.35;94362.66;4854545;29;20519;-85
2021/03/07 11:13:21;;;;;;;;;;;;;;;;;;;;;
2021/03/07 11:16:03;;;;;;;;;;;;;;;;;;;;;
2021/03/07 11:19:44;;;;;;;19.70;16.17;;;;;;;10.83;29.69;94413.78;4817376;29;20396;-86
2021/03/07 11:22:08;;;;;;;20.75;15.50;;;;;;;9.94;30.34;94335.50;4850136;29;20035;-85
2021/03/07 11:24:40;;;;;;;17.65;15.18;;;;;;;10.31;30.84;94358.06;4822690;29;20052;-85
2021/03/07 11:30:57;;;;;;;20.67;15.82;;;;;;;10.46;31.13;94384.38;4781670;29;20498;-85
2021/03/07 11:33:30;;;;;;;21.52;15.60;;;;;;;10.22;30.66;94388.72;4795206;29;20341;-85
2021/03/07 11:36:38;;;;;;;23.27;17.00;;;;;;;9.98;31.13;94351.56;4878655;29;20969;-85
2021/03/07 11:39:46;;;;;;;24.05;16.02;;;;;;;10.48;31.33;94373.53;4840255;29;20443;-85
2021/03/07 11:42:36;;;;;;;;;;;;;;;;;;;;;
2021/03/07 11:45:37;;;;;;;22.83;15.80;;;;;;;10.08;31.69;94361.31;4890683;29;20048;-85
2021/03/07 11:48:26;;;;;;;21.58;16.08;;;;;;;9.81;31.90;94303.63;4857167;29;20054;-88
2021/03/07 11:51:14;;;;;;;23.70;16.55;;;;;;;10.18;31.17;94327.75;4889593;29;20062;-87
2021/03/07 11:54:25;;;;;;;;;;;;;;;;;;;;;
2021/03/07 11:57:01;;;;;;;22.85;15.75;;;;;;;9.73;31.81;94269.84;4874044;29;20415;-87
2021/03/07 11:59:33;;;;;;;21.15;14.88;;;;;;;9.97;33.92;94263.66;4877882;29;20040;-86
2021/03/07 12:02:02;;;;;;;21.55;14.50;;;;;;;10.37;31.41;94333.19;4883454;28;20062;-84
2021/03/07 12:04:44;;;;;;;20.25;14.98;;;;;;;9.90;31.85;94238.63;4876652;28;20586;-85
2021/03/07 12:07:25;;;;;;;19.58;14.55;;;;;;;10.54;31.56;94287.88;4876782;28;20054;-85
2021/03/07 12:10:04;;;;;;;24.17;14.65;;;;;;;10.69;31.46;94311.56;4858919;28;20047;-85
2021/03/07 12:12:36;;;;;;;22.88;14.73;;;;;;;10.16;31.27;94250.66;4847481;29;20143;-85
2021/03/07 12:15:06;;;;;;;23.08;16.48;;;;;;;9.88;32.21;94220.41;4905515;29;20124;-85
2021/03/07 12:17:35;;;;;;;19.92;14.70;;;;;;;10.15;31.67;94250.88;4876120;28;20043;-85
2021/03/07 12:20:09;;;;;;;23.05;14.80;;;;;;;10.22;31.78;94281.22;4889641;28;20678;-84
2021/03/07 12:22:40;;;;;;;22.33;14.23;;;;;;;10.21;31.84;94292.09;4857892;29;20068;-86
2021/03/07 12:25:08;;;;;;;18.95;14.15;;;;;;;10.14;31.90;94294.19;4855508;28;20044;-87
2021/03/07 12:27:34;;;;;;;21.83;14.68;;;;;;;9.84;32.12;94269.53;4904156;28;20044;-85
2021/03/07 12:30:12;;;;;;;23.13;14.93;;;;;;;9.87;32.90;94287.47;4912268;29;20027;-84
2021/03/07 12:32:48;;;;;;;19.17;14.30;;;;;;;9.59;32.49;94206.31;4867671;29;20108;-84
2021/03/07 12:35:15;;;;;;;19.33;14.68;;;;;;;10.05;32.84;94229.81;4867950;28;20044;-84
2021/03/07 12:37:55;;;;;;;21.40;14.90;;;;;;;10.10;32.12;94201.53;4859451;29;20618;-84
2021/03/07 12:41:18;;;;;;;21.67;15.07;;;;;;;10.08;31.98;94224.78;4862990;28;20051;-85
2021/03/07 12:44:51;;;;;;;21.60;14.90;;;;;;;10.09;32.47;94273.91;4885658;29;20117;-84
2021/03/07 12:47:30;;;;;;;24.30;14.77;;;;;;;9.84;32.77;94198.28;4877054;28;20482;-86
2021/03/07 12:50:04;;;;;;;23.50;14.98;;;;;;;9.93;32.56;94196.63;4851422;28;20059;-86
2021/03/07 12:52:53;;;;;;;19.98;13.90;;;;;;;10.08;31.58;94208.13;4842305;28;20081;-86
2021/03/07 12:55:30;;;;;;;27.98;14.30;;;;;;;9.80;31.56;94176.13;4882687;28;20039;-85
2021/03/07 12:58:24;;;;;;;24.42;15.02;;;;;;;10.16;32.26;94247.22;4920112;23;20127;-85
2021/03/07 13:01:32;;;;;;;18.77;14.10;;;;;;;9.81;32.29;94203.31;4874959;28;20601;-86
2021/03/07 13:04:21;;;;;;;24.00;16.13;;;;;;;10.15;32.67;94245.59;4889662;28;20274;-85
2021/03/07 13:10:00;;;;;;;19.67;14.98;;;;;;;10.11;32.43;94160.88;4892247;28;20048;-85
2021/03/07 13:12:41;;;;;;;19.85;13.90;;;;;;;10.68;31.42;94217.47;4911297;28;20123;-86
2021/03/07 13:15:24;;;;;;;24.98;13.80;;;;;;;10.22;31.03;94156.28;4939292;23;20138;-85
2021/03/07 13:18:26;;;;;;;21.80;14.63;;;;;;;10.24;33.16;94140.97;4895121;29;20079;-85
2021/03/07 13:21:15;;;;;;;21.45;13.88;;;;;;;10.35;31.19;94164.41;4811572;29;20051;-85
2021/03/07 13:24:13;;;;;;;21.33;14.38;;;;;;;10.74;31.63;94196.00;4851105;29;20553;-85
2021/03/07 13:27:20;;;;;;;23.63;15.40;;;;;;;10.58;30.97;94141.72;4845731;29;20381;-86
2021/03/07 13:29:47;;;;;;;20.30;14.25;;;;;;;11.05;30.92;94198.31;4858532;29;20043;-85
2021/03/07 13:32:22;;;;;;;19.27;14.18;;;;;;;10.92;31.54;94186.56;4886077;28;20064;-85
2021/03/07 13:34:49;;;;;;;21.45;14.65;;;;;;;10.97;32.05;94194.44;4860433;28;20131;-85
2021/03/07 13:37:34;;;;;;;18.48;13.48;;;;;;;10.52;31.83;94161.31;4852176;29;20063;-85
2021/03/07 13:43:20;;;;;;;18.58;14.27;;;;;;;10.18;32.69;94181.69;4870280;27;20052;-85
2021/03/07 13:46:21;;;;;;;20.52;13.40;;;;;;;10.13;32.42;94142.09;4937138;23;20074;-87
2021/03/07 13:48:54;;;;;;;17.25;12.25;;;;;;;10.33;32.12;94155.16;4929658;28;20097;-87
2021/03/07 13:51:46;;;;;;;18.90;13.00;;;;;;;10.01;32.34;94087.03;4904016;28;20161;-87
2021/03/07 13:54:39;;;;;;;24.33;15.50;;;;;;;10.32;32.16;94145.66;4892741;23;20510;-87
2021/03/07 13:57:11;;;;;;;19.48;13.27;;;;;;;10.10;32.40;94103.84;4872600;29;20119;-87
2021/03/07 14:00:00;;;;;;;19.40;13.27;;;;;;;10.43;32.56;94141.84;4794936;29;20090;-87
2021/03/07 14:03:14;;;;;;;28.30;14.05;;;;;;;10.20;33.33;94142.59;4893143;29;20455;-87
2021/03/07 14:05:58;;;;;;;23.20;13.25;;;;;;;10.33;33.99;94171.00;4821214;29;20091;-86
2021/03/07 14:08:33;;;;;;;23.30;13.18;;;;;;;10.17;33.67;94151.06;4861357;29;20119;-87
2021/03/07 14:11:09;;;;;;;19.40;13.13;;;;;;;10.28;33.46;94171.03;4891287;28;20499;-87
2021/03/07 14:13:49;;;;;;;20.50;14.63;;;;;;;9.90;33.82;94106.63;4877916;29;20497;-84
2021/03/07 14:16:21;;;;;;;21.45;15.10;;;;;;;10.12;33.33;94159.78;4906325;28;20386;-87
2021/03/07 14:18:47;;;;;;;17.92;13.70;;;;;;;9.90;33.49;94117.97;4923775;28;20051;-87
2021/03/07 14:22:04;;;;;;;24.63;14.07;;;;;;;9.94;33.97;94124.28;4927201;28;20022;-87
2021/03/07 14:25:15;;;;;;;20.90;13.20;;;;;;;9.49;34.38;94069.19;4906102;28;20652;-87